الصفحة الرئيسية
METAR-TAF:

METAR-TAF

مطار :

مدينة غواتيمالا, غواتيمالا

دائرة عرض: 14-35N, خط طول: 090-31W, ارتفاع: 1489 متر

مراقبة الطقس الحالي

تاريخ ووقت الإصدار 36 دقيقة قبل الساعة 09:00UTC
ريح 12 عقدة من الشمال
درجة الحرارة 18°درجة مئوية
الرطوبة 88%
ضغط 1027 hPa
الرؤية 10 كم أو أكثر
غيوم مفككة على ارتفاع 1400 قدم

METAR: MGGT 170900Z 36012KT 9999 BKN014 18/16 Q1027 A3033

زمن: 03:36 (09:36 UTC)

توقعات

التوقعات صالحة من17 الساعة 06 UTC إلى 18 الساعة 06 UTC
ريح 12 عقدة من الشمال
الرؤية 10 كم أو أكثر
غيوم قليلة على ارتفاع 1600 قدم
مؤقت
من 17 الساعة 09 UTC إلى 17 الساعة 12 UTC
غيوم متفرقة على ارتفاع 1600 قدم
أصبح
من 17 الساعة 14 UTC إلى 17 الساعة 16 UTC
غيوم قليلة على ارتفاع 1800 قدم
أصبح
من 17 الساعة 18 UTC إلى 17 الساعة 20 UTC
ريح 10 عقدة من الشمال الشرقي
غيوم قليلة على ارتفاع 2000 قدم
أصبح
من 18 الساعة 01 UTC إلى 18 الساعة 03 UTC
غيوم قليلة على ارتفاع 1600 قدم

TAF: MGGT 1706/1806 36012KT 9999 FEW016 TX25/1720Z TN16/1712Z TEMPO 1709/1712 SCT016 BECMG 1714/1716 FEW018 BECMG 1718/1720 05010KT FEW020 BECMG 1801/1803 36012 FEW016

أرصاد الطقس والتوقعات من أكثر من 4000 مطار (تقارير الطقس للمطار METAR والتنبؤ بالطقس بالمطارTAF).

المحطات المتاحة هي النقط الصفراء والحمراء على الخريطة.

حرك المؤشر فوق النقطة لمعرفة اسم المحطة.

ثم انقر لمعرفة أرصاد وتوقعات الطقس.

لتغيير الخارطة: اضغط على الأزرار الخضراء مع رمز الصليب الأسود للتكبير. على الزر الأخضر مع شرطة للتصغير، أو على الأسهم الخضراء للخرائط المجاورة.


METAR-TAF: